sensor_id;sensor_type;location;lat;lon;timestamp;P1;durP1;ratioP1;P2;durP2;ratioP2
11827;SDS011;5971;49.646;8.568;2023-06-22T00:02:18;8.10;;;5.03;;
11827;SDS011;5971;49.646;8.568;2023-06-22T00:05:19;7.65;;;5.28;;
11827;SDS011;5971;49.646;8.568;2023-06-22T00:08:20;7.05;;;4.93;;
11827;SDS011;5971;49.646;8.568;2023-06-22T00:11:22;9.20;;;5.63;;
11827;SDS011;5971;49.646;8.568;2023-06-22T00:14:24;9.38;;;5.22;;
11827;SDS011;5971;49.646;8.568;2023-06-22T00:17:25;7.82;;;5.78;;
11827;SDS011;5971;49.646;8.568;2023-06-22T00:20:27;9.10;;;5.55;;
11827;SDS011;5971;49.646;8.568;2023-06-22T00:23:32;9.27;;;5.68;;
11827;SDS011;5971;49.646;8.568;2023-06-22T00:26:35;8.27;;;5.18;;
11827;SDS011;5971;49.646;8.568;2023-06-22T00:29:37;8.27;;;5.90;;
11827;SDS011;5971;49.646;8.568;2023-06-22T00:32:38;9.38;;;5.75;;
11827;SDS011;5971;49.646;8.568;2023-06-22T00:35:39;8.82;;;5.53;;
11827;SDS011;5971;49.646;8.568;2023-06-22T00:38:43;9.95;;;5.93;;
11827;SDS011;5971;49.646;8.568;2023-06-22T00:41:44;8.57;;;5.85;;
11827;SDS011;5971;49.646;8.568;2023-06-22T00:44:45;9.75;;;5.55;;
11827;SDS011;5971;49.646;8.568;2023-06-22T00:47:47;8.90;;;5.93;;
11827;SDS011;5971;49.646;8.568;2023-06-22T00:50:48;9.88;;;5.53;;
11827;SDS011;5971;49.646;8.568;2023-06-22T00:53:51;9.40;;;6.07;;
11827;SDS011;5971;49.646;8.568;2023-06-22T00:56:54;9.10;;;6.10;;
11827;SDS011;5971;49.646;8.568;2023-06-22T00:59:57;8.85;;;5.20;;
11827;SDS011;5971;49.646;8.568;2023-06-22T01:02:58;8.45;;;5.40;;
11827;SDS011;5971;49.646;8.568;2023-06-22T01:06:06;12.27;;;6.95;;
11827;SDS011;5971;49.646;8.568;2023-06-22T01:12:12;12.55;;;6.70;;
11827;SDS011;5971;49.646;8.568;2023-06-22T01:15:15;10.70;;;7.10;;
11827;SDS011;5971;49.646;8.568;2023-06-22T01:18:18;11.38;;;7.10;;
11827;SDS011;5971;49.646;8.568;2023-06-22T01:21:20;14.27;;;8.13;;
11827;SDS011;5971;49.646;8.568;2023-06-22T01:27:39;12.18;;;7.88;;
11827;SDS011;5971;49.646;8.568;2023-06-22T01:30:46;12.82;;;7.88;;
11827;SDS011;5971;49.646;8.568;2023-06-22T01:33:51;12.95;;;8.05;;
11827;SDS011;5971;49.646;8.568;2023-06-22T01:36:53;12.15;;;8.48;;
11827;SDS011;5971;49.646;8.568;2023-06-22T01:39:55;12.77;;;7.97;;
11827;SDS011;5971;49.646;8.568;2023-06-22T01:42:57;12.05;;;8.35;;
11827;SDS011;5971;49.646;8.568;2023-06-22T01:46:00;15.38;;;7.45;;
11827;SDS011;5971;49.646;8.568;2023-06-22T01:49:02;11.25;;;7.93;;
11827;SDS011;5971;49.646;8.568;2023-06-22T01:52:04;19.55;;;8.75;;
11827;SDS011;5971;49.646;8.568;2023-06-22T01:55:06;12.10;;;7.45;;
11827;SDS011;5971;49.646;8.568;2023-06-22T01:58:09;11.85;;;7.72;;
11827;SDS011;5971;49.646;8.568;2023-06-22T02:01:11;13.80;;;8.57;;
11827;SDS011;5971;49.646;8.568;2023-06-22T02:04:13;12.52;;;7.55;;
11827;SDS011;5971;49.646;8.568;2023-06-22T02:07:17;12.68;;;7.95;;
11827;SDS011;5971;49.646;8.568;2023-06-22T02:10:19;11.88;;;7.90;;
11827;SDS011;5971;49.646;8.568;2023-06-22T02:13:23;12.32;;;7.45;;
11827;SDS011;5971;49.646;8.568;2023-06-22T02:16:25;12.52;;;7.70;;
11827;SDS011;5971;49.646;8.568;2023-06-22T02:19:30;11.80;;;7.35;;
11827;SDS011;5971;49.646;8.568;2023-06-22T02:22:34;12.60;;;7.55;;
11827;SDS011;5971;49.646;8.568;2023-06-22T02:25:35;12.88;;;8.27;;
11827;SDS011;5971;49.646;8.568;2023-06-22T02:28:37;13.60;;;7.80;;
11827;SDS011;5971;49.646;8.568;2023-06-22T02:31:38;12.50;;;8.02;;
11827;SDS011;5971;49.646;8.568;2023-06-22T02:34:40;12.32;;;8.32;;
11827;SDS011;5971;49.646;8.568;2023-06-22T02:37:43;13.32;;;8.75;;
11827;SDS011;5971;49.646;8.568;2023-06-22T02:40:45;11.25;;;7.85;;
11827;SDS011;5971;49.646;8.568;2023-06-22T02:43:47;16.08;;;8.48;;
11827;SDS011;5971;49.646;8.568;2023-06-22T02:46:48;13.98;;;9.05;;
11827;SDS011;5971;49.646;8.568;2023-06-22T02:49:49;13.27;;;8.38;;
11827;SDS011;5971;49.646;8.568;2023-06-22T02:52:51;13.40;;;8.13;;
11827;SDS011;5971;49.646;8.568;2023-06-22T02:55:52;13.15;;;7.82;;
11827;SDS011;5971;49.646;8.568;2023-06-22T02:58:54;12.02;;;7.95;;
11827;SDS011;5971;49.646;8.568;2023-06-22T03:01:55;12.80;;;8.43;;
11827;SDS011;5971;49.646;8.568;2023-06-22T03:04:57;13.38;;;8.50;;
11827;SDS011;5971;49.646;8.568;2023-06-22T03:07:58;13.27;;;8.43;;
11827;SDS011;5971;49.646;8.568;2023-06-22T03:11:00;13.40;;;8.43;;
11827;SDS011;5971;49.646;8.568;2023-06-22T03:14:01;13.23;;;8.82;;
11827;SDS011;5971;49.646;8.568;2023-06-22T03:17:03;15.20;;;9.93;;
11827;SDS011;5971;49.646;8.568;2023-06-22T03:20:05;15.52;;;9.65;;
11827;SDS011;5971;49.646;8.568;2023-06-22T03:23:10;16.02;;;9.73;;
11827;SDS011;5971;49.646;8.568;2023-06-22T03:26:11;13.35;;;9.07;;
11827;SDS011;5971;49.646;8.568;2023-06-22T03:29:13;13.55;;;8.90;;
11827;SDS011;5971;49.646;8.568;2023-06-22T03:32:14;17.13;;;9.90;;
11827;SDS011;5971;49.646;8.568;2023-06-22T03:35:16;13.80;;;9.20;;
11827;SDS011;5971;49.646;8.568;2023-06-22T03:38:17;14.05;;;9.02;;
11827;SDS011;5971;49.646;8.568;2023-06-22T03:41:19;14.23;;;8.70;;
11827;SDS011;5971;49.646;8.568;2023-06-22T03:44:20;14.40;;;9.07;;
11827;SDS011;5971;49.646;8.568;2023-06-22T03:47:22;12.65;;;8.40;;
11827;SDS011;5971;49.646;8.568;2023-06-22T03:50:23;12.80;;;8.18;;
11827;SDS011;5971;49.646;8.568;2023-06-22T03:53:25;13.63;;;8.23;;
11827;SDS011;5971;49.646;8.568;2023-06-22T03:56:26;13.05;;;8.00;;
11827;SDS011;5971;49.646;8.568;2023-06-22T03:59:27;13.55;;;8.18;;
11827;SDS011;5971;49.646;8.568;2023-06-22T04:02:29;11.85;;;7.85;;
11827;SDS011;5971;49.646;8.568;2023-06-22T04:05:30;13.27;;;8.18;;
11827;SDS011;5971;49.646;8.568;2023-06-22T04:08:32;12.38;;;8.20;;
11827;SDS011;5971;49.646;8.568;2023-06-22T04:11:33;11.95;;;7.40;;
11827;SDS011;5971;49.646;8.568;2023-06-22T04:14:34;12.60;;;7.85;;
11827;SDS011;5971;49.646;8.568;2023-06-22T04:17:36;11.93;;;8.05;;
11827;SDS011;5971;49.646;8.568;2023-06-22T04:20:37;11.57;;;8.05;;
11827;SDS011;5971;49.646;8.568;2023-06-22T04:23:39;12.95;;;8.52;;
11827;SDS011;5971;49.646;8.568;2023-06-22T04:26:40;12.05;;;8.77;;
11827;SDS011;5971;49.646;8.568;2023-06-22T04:29:43;12.90;;;8.55;;
11827;SDS011;5971;49.646;8.568;2023-06-22T04:32:49;12.68;;;8.15;;
11827;SDS011;5971;49.646;8.568;2023-06-22T04:35:59;11.32;;;7.75;;
11827;SDS011;5971;49.646;8.568;2023-06-22T04:39:05;13.73;;;8.18;;
11827;SDS011;5971;49.646;8.568;2023-06-22T04:42:08;11.93;;;8.38;;
11827;SDS011;5971;49.646;8.568;2023-06-22T04:45:09;12.50;;;8.25;;
11827;SDS011;5971;49.646;8.568;2023-06-22T04:48:11;12.05;;;7.72;;
11827;SDS011;5971;49.646;8.568;2023-06-22T04:51:17;11.18;;;7.45;;
11827;SDS011;5971;49.646;8.568;2023-06-22T04:54:22;10.65;;;7.03;;
11827;SDS011;5971;49.646;8.568;2023-06-22T04:57:24;12.07;;;7.47;;
11827;SDS011;5971;49.646;8.568;2023-06-22T05:00:34;11.30;;;7.53;;
11827;SDS011;5971;49.646;8.568;2023-06-22T05:03:37;11.70;;;6.85;;
11827;SDS011;5971;49.646;8.568;2023-06-22T05:06:39;11.35;;;8.07;;
11827;SDS011;5971;49.646;8.568;2023-06-22T05:09:41;10.75;;;7.03;;
11827;SDS011;5971;49.646;8.568;2023-06-22T05:12:42;11.00;;;7.15;;
11827;SDS011;5971;49.646;8.568;2023-06-22T05:15:44;10.35;;;7.07;;
11827;SDS011;5971;49.646;8.568;2023-06-22T05:18:49;9.13;;;6.50;;
11827;SDS011;5971;49.646;8.568;2023-06-22T05:21:51;11.10;;;7.05;;
11827;SDS011;5971;49.646;8.568;2023-06-22T05:24:52;10.88;;;6.63;;
11827;SDS011;5971;49.646;8.568;2023-06-22T05:27:57;9.70;;;6.60;;
11827;SDS011;5971;49.646;8.568;2023-06-22T05:30:58;10.18;;;6.55;;
11827;SDS011;5971;49.646;8.568;2023-06-22T05:34:00;10.95;;;6.72;;
11827;SDS011;5971;49.646;8.568;2023-06-22T05:37:02;10.07;;;6.90;;
11827;SDS011;5971;49.646;8.568;2023-06-22T05:40:03;11.07;;;6.70;;
11827;SDS011;5971;49.646;8.568;2023-06-22T05:43:05;10.77;;;6.70;;
11827;SDS011;5971;49.646;8.568;2023-06-22T05:46:06;9.73;;;6.85;;
11827;SDS011;5971;49.646;8.568;2023-06-22T05:49:08;10.40;;;6.70;;
11827;SDS011;5971;49.646;8.568;2023-06-22T05:52:09;9.25;;;6.47;;
11827;SDS011;5971;49.646;8.568;2023-06-22T05:55:10;9.10;;;6.40;;
11827;SDS011;5971;49.646;8.568;2023-06-22T05:58:12;9.93;;;6.30;;
11827;SDS011;5971;49.646;8.568;2023-06-22T06:01:14;9.90;;;6.00;;
11827;SDS011;5971;49.646;8.568;2023-06-22T06:04:17;8.45;;;6.15;;
11827;SDS011;5971;49.646;8.568;2023-06-22T06:07:19;9.90;;;6.22;;
11827;SDS011;5971;49.646;8.568;2023-06-22T06:10:20;10.73;;;5.63;;
11827;SDS011;5971;49.646;8.568;2023-06-22T06:13:22;10.40;;;5.97;;
11827;SDS011;5971;49.646;8.568;2023-06-22T06:16:23;8.98;;;6.50;;
11827;SDS011;5971;49.646;8.568;2023-06-22T06:19:24;9.73;;;5.72;;
11827;SDS011;5971;49.646;8.568;2023-06-22T06:22:26;9.23;;;5.88;;
11827;SDS011;5971;49.646;8.568;2023-06-22T06:25:27;7.80;;;5.57;;
11827;SDS011;5971;49.646;8.568;2023-06-22T06:28:29;8.05;;;5.25;;
11827;SDS011;5971;49.646;8.568;2023-06-22T06:31:30;7.07;;;4.65;;
11827;SDS011;5971;49.646;8.568;2023-06-22T06:34:32;7.82;;;5.05;;
11827;SDS011;5971;49.646;8.568;2023-06-22T06:37:37;7.35;;;4.88;;
11827;SDS011;5971;49.646;8.568;2023-06-22T06:40:38;6.40;;;4.68;;
11827;SDS011;5971;49.646;8.568;2023-06-22T06:43:40;6.95;;;4.63;;
11827;SDS011;5971;49.646;8.568;2023-06-22T06:46:41;7.32;;;4.63;;
11827;SDS011;5971;49.646;8.568;2023-06-22T06:49:43;6.15;;;4.60;;
11827;SDS011;5971;49.646;8.568;2023-06-22T06:52:45;6.20;;;5.00;;
11827;SDS011;5971;49.646;8.568;2023-06-22T06:55:46;7.10;;;4.90;;
11827;SDS011;5971;49.646;8.568;2023-06-22T06:58:49;6.15;;;4.80;;
11827;SDS011;5971;49.646;8.568;2023-06-22T07:01:50;6.93;;;4.60;;
11827;SDS011;5971;49.646;8.568;2023-06-22T07:04:52;6.45;;;4.38;;
11827;SDS011;5971;49.646;8.568;2023-06-22T07:07:53;5.95;;;4.75;;
11827;SDS011;5971;49.646;8.568;2023-06-22T07:10:55;5.97;;;4.43;;
11827;SDS011;5971;49.646;8.568;2023-06-22T07:13:56;6.65;;;4.63;;
11827;SDS011;5971;49.646;8.568;2023-06-22T07:16:58;6.15;;;4.57;;
11827;SDS011;5971;49.646;8.568;2023-06-22T07:20:00;7.07;;;5.00;;
11827;SDS011;5971;49.646;8.568;2023-06-22T07:23:01;6.65;;;4.55;;
11827;SDS011;5971;49.646;8.568;2023-06-22T07:26:02;7.00;;;4.90;;
11827;SDS011;5971;49.646;8.568;2023-06-22T07:29:04;6.18;;;4.43;;
11827;SDS011;5971;49.646;8.568;2023-06-22T07:32:05;6.30;;;4.35;;
11827;SDS011;5971;49.646;8.568;2023-06-22T07:35:07;7.28;;;5.38;;
11827;SDS011;5971;49.646;8.568;2023-06-22T07:38:08;6.75;;;4.70;;
11827;SDS011;5971;49.646;8.568;2023-06-22T07:41:10;7.03;;;4.85;;
11827;SDS011;5971;49.646;8.568;2023-06-22T07:44:11;6.32;;;4.63;;
11827;SDS011;5971;49.646;8.568;2023-06-22T07:47:13;7.18;;;4.40;;
11827;SDS011;5971;49.646;8.568;2023-06-22T07:50:14;6.53;;;4.65;;
11827;SDS011;5971;49.646;8.568;2023-06-22T07:53:15;6.60;;;4.78;;
11827;SDS011;5971;49.646;8.568;2023-06-22T07:56:17;6.63;;;4.95;;
11827;SDS011;5971;49.646;8.568;2023-06-22T07:59:22;5.65;;;4.32;;
11827;SDS011;5971;49.646;8.568;2023-06-22T08:02:23;6.78;;;5.20;;
11827;SDS011;5971;49.646;8.568;2023-06-22T08:05:24;6.57;;;4.93;;
11827;SDS011;5971;49.646;8.568;2023-06-22T08:08:26;7.05;;;4.93;;
11827;SDS011;5971;49.646;8.568;2023-06-22T08:11:27;8.07;;;5.05;;
11827;SDS011;5971;49.646;8.568;2023-06-22T08:14:29;7.35;;;5.60;;
11827;SDS011;5971;49.646;8.568;2023-06-22T08:17:30;6.15;;;5.07;;
11827;SDS011;5971;49.646;8.568;2023-06-22T08:20:32;6.15;;;4.95;;
11827;SDS011;5971;49.646;8.568;2023-06-22T08:23:34;5.60;;;4.60;;
11827;SDS011;5971;49.646;8.568;2023-06-22T08:26:36;6.22;;;4.80;;
11827;SDS011;5971;49.646;8.568;2023-06-22T08:29:39;7.72;;;4.93;;
11827;SDS011;5971;49.646;8.568;2023-06-22T08:32:40;5.97;;;4.80;;
11827;SDS011;5971;49.646;8.568;2023-06-22T08:35:42;5.82;;;4.75;;
11827;SDS011;5971;49.646;8.568;2023-06-22T08:38:43;6.68;;;4.60;;
11827;SDS011;5971;49.646;8.568;2023-06-22T08:41:46;6.07;;;5.15;;
11827;SDS011;5971;49.646;8.568;2023-06-22T08:44:47;6.38;;;4.82;;
11827;SDS011;5971;49.646;8.568;2023-06-22T08:47:49;6.03;;;5.25;;
11827;SDS011;5971;49.646;8.568;2023-06-22T08:50:50;6.13;;;5.07;;
11827;SDS011;5971;49.646;8.568;2023-06-22T08:53:52;6.05;;;4.68;;
11827;SDS011;5971;49.646;8.568;2023-06-22T08:56:53;6.18;;;5.13;;
11827;SDS011;5971;49.646;8.568;2023-06-22T08:59:54;6.65;;;4.93;;
11827;SDS011;5971;49.646;8.568;2023-06-22T09:03:00;6.50;;;4.68;;
11827;SDS011;5971;49.646;8.568;2023-06-22T09:06:01;5.90;;;4.88;;
11827;SDS011;5971;49.646;8.568;2023-06-22T09:09:03;6.10;;;4.85;;
11827;SDS011;5971;49.646;8.568;2023-06-22T09:12:04;6.68;;;5.25;;
11827;SDS011;5971;49.646;8.568;2023-06-22T09:15:06;6.43;;;5.25;;
11827;SDS011;5971;49.646;8.568;2023-06-22T09:18:13;6.40;;;4.70;;
11827;SDS011;5971;49.646;8.568;2023-06-22T09:21:15;6.25;;;4.82;;
11827;SDS011;5971;49.646;8.568;2023-06-22T09:24:16;6.57;;;5.07;;
11827;SDS011;5971;49.646;8.568;2023-06-22T09:27:18;6.15;;;4.93;;
11827;SDS011;5971;49.646;8.568;2023-06-22T09:30:19;6.78;;;5.03;;
11827;SDS011;5971;49.646;8.568;2023-06-22T09:33:20;5.28;;;4.30;;
11827;SDS011;5971;49.646;8.568;2023-06-22T09:36:22;5.57;;;4.25;;
11827;SDS011;5971;49.646;8.568;2023-06-22T09:39:23;5.60;;;4.35;;
11827;SDS011;5971;49.646;8.568;2023-06-22T09:42:25;5.43;;;4.30;;
11827;SDS011;5971;49.646;8.568;2023-06-22T09:45:26;6.55;;;4.75;;
11827;SDS011;5971;49.646;8.568;2023-06-22T09:48:28;5.85;;;4.22;;
11827;SDS011;5971;49.646;8.568;2023-06-22T09:51:30;6.63;;;4.45;;
11827;SDS011;5971;49.646;8.568;2023-06-22T09:54:31;8.30;;;4.20;;
11827;SDS011;5971;49.646;8.568;2023-06-22T09:57:33;6.82;;;4.30;;
11827;SDS011;5971;49.646;8.568;2023-06-22T10:00:34;5.72;;;4.68;;
11827;SDS011;5971;49.646;8.568;2023-06-22T10:03:36;5.43;;;4.03;;
11827;SDS011;5971;49.646;8.568;2023-06-22T10:06:38;5.65;;;3.70;;
11827;SDS011;5971;49.646;8.568;2023-06-22T10:09:41;6.22;;;3.63;;
11827;SDS011;5971;49.646;8.568;2023-06-22T10:12:47;5.90;;;4.25;;
11827;SDS011;5971;49.646;8.568;2023-06-22T10:15:48;5.88;;;4.07;;
11827;SDS011;5971;49.646;8.568;2023-06-22T10:18:52;5.13;;;3.65;;
11827;SDS011;5971;49.646;8.568;2023-06-22T10:21:53;5.63;;;3.70;;
11827;SDS011;5971;49.646;8.568;2023-06-22T10:24:55;5.25;;;3.70;;
11827;SDS011;5971;49.646;8.568;2023-06-22T10:27:56;7.03;;;3.80;;
11827;SDS011;5971;49.646;8.568;2023-06-22T10:30:58;5.65;;;3.80;;
11827;SDS011;5971;49.646;8.568;2023-06-22T10:33:59;6.15;;;3.83;;
11827;SDS011;5971;49.646;8.568;2023-06-22T10:37:01;6.57;;;3.80;;
11827;SDS011;5971;49.646;8.568;2023-06-22T10:40:02;4.60;;;3.42;;
11827;SDS011;5971;49.646;8.568;2023-06-22T10:43:05;5.15;;;3.38;;
11827;SDS011;5971;49.646;8.568;2023-06-22T10:46:06;5.35;;;3.90;;
11827;SDS011;5971;49.646;8.568;2023-06-22T10:49:08;6.68;;;3.75;;
11827;SDS011;5971;49.646;8.568;2023-06-22T10:52:09;5.75;;;3.63;;
11827;SDS011;5971;49.646;8.568;2023-06-22T10:55:10;6.63;;;4.03;;
11827;SDS011;5971;49.646;8.568;2023-06-22T10:58:12;4.85;;;3.58;;
11827;SDS011;5971;49.646;8.568;2023-06-22T11:01:13;4.82;;;3.30;;
11827;SDS011;5971;49.646;8.568;2023-06-22T11:04:35;5.97;;;3.25;;
11827;SDS011;5971;49.646;8.568;2023-06-22T11:07:37;5.65;;;3.47;;
11827;SDS011;5971;49.646;8.568;2023-06-22T11:10:43;4.53;;;3.70;;
11827;SDS011;5971;49.646;8.568;2023-06-22T11:13:45;5.45;;;3.80;;
11827;SDS011;5971;49.646;8.568;2023-06-22T11:16:46;5.38;;;3.33;;
11827;SDS011;5971;49.646;8.568;2023-06-22T11:19:50;7.05;;;3.85;;
11827;SDS011;5971;49.646;8.568;2023-06-22T11:22:51;6.03;;;3.97;;
11827;SDS011;5971;49.646;8.568;2023-06-22T11:25:53;4.68;;;3.63;;
11827;SDS011;5971;49.646;8.568;2023-06-22T11:28:55;6.32;;;3.67;;
11827;SDS011;5971;49.646;8.568;2023-06-22T11:31:56;7.53;;;3.60;;
11827;SDS011;5971;49.646;8.568;2023-06-22T11:34:57;6.22;;;3.70;;
11827;SDS011;5971;49.646;8.568;2023-06-22T11:37:59;5.85;;;3.60;;
11827;SDS011;5971;49.646;8.568;2023-06-22T11:41:00;6.80;;;3.70;;
11827;SDS011;5971;49.646;8.568;2023-06-22T11:44:02;5.90;;;3.65;;
11827;SDS011;5971;49.646;8.568;2023-06-22T11:47:05;5.47;;;3.78;;
11827;SDS011;5971;49.646;8.568;2023-06-22T11:50:07;5.90;;;4.05;;
11827;SDS011;5971;49.646;8.568;2023-06-22T11:53:08;5.95;;;3.60;;
11827;SDS011;5971;49.646;8.568;2023-06-22T11:56:10;6.95;;;3.83;;
11827;SDS011;5971;49.646;8.568;2023-06-22T11:59:11;6.80;;;3.75;;
11827;SDS011;5971;49.646;8.568;2023-06-22T12:02:12;6.57;;;3.80;;
11827;SDS011;5971;49.646;8.568;2023-06-22T12:05:14;6.13;;;3.88;;
11827;SDS011;5971;49.646;8.568;2023-06-22T12:08:15;6.13;;;3.67;;
11827;SDS011;5971;49.646;8.568;2023-06-22T12:11:16;6.82;;;3.80;;
11827;SDS011;5971;49.646;8.568;2023-06-22T12:14:18;7.55;;;4.05;;
11827;SDS011;5971;49.646;8.568;2023-06-22T12:17:19;6.88;;;3.80;;
11827;SDS011;5971;49.646;8.568;2023-06-22T12:20:21;7.15;;;3.95;;
11827;SDS011;5971;49.646;8.568;2023-06-22T12:23:24;6.93;;;3.60;;
11827;SDS011;5971;49.646;8.568;2023-06-22T12:26:25;6.15;;;3.72;;
11827;SDS011;5971;49.646;8.568;2023-06-22T12:29:27;6.63;;;3.83;;
11827;SDS011;5971;49.646;8.568;2023-06-22T12:32:28;6.35;;;3.90;;
11827;SDS011;5971;49.646;8.568;2023-06-22T12:35:30;5.47;;;3.88;;
11827;SDS011;5971;49.646;8.568;2023-06-22T12:38:31;9.38;;;4.38;;
11827;SDS011;5971;49.646;8.568;2023-06-22T12:41:32;5.78;;;4.22;;
11827;SDS011;5971;49.646;8.568;2023-06-22T12:44:34;6.68;;;4.00;;
11827;SDS011;5971;49.646;8.568;2023-06-22T12:47:35;6.38;;;3.50;;
11827;SDS011;5971;49.646;8.568;2023-06-22T12:50:37;5.85;;;4.10;;
11827;SDS011;5971;49.646;8.568;2023-06-22T12:53:38;6.38;;;3.78;;
11827;SDS011;5971;49.646;8.568;2023-06-22T12:56:40;5.18;;;3.83;;
11827;SDS011;5971;49.646;8.568;2023-06-22T12:59:41;6.00;;;4.10;;
11827;SDS011;5971;49.646;8.568;2023-06-22T13:02:42;7.57;;;3.70;;
11827;SDS011;5971;49.646;8.568;2023-06-22T13:05:44;5.15;;;3.33;;
11827;SDS011;5971;49.646;8.568;2023-06-22T13:08:45;4.80;;;3.38;;
11827;SDS011;5971;49.646;8.568;2023-06-22T13:11:50;5.82;;;3.50;;
11827;SDS011;5971;49.646;8.568;2023-06-22T13:14:51;7.10;;;3.95;;
11827;SDS011;5971;49.646;8.568;2023-06-22T13:17:52;7.57;;;3.42;;
11827;SDS011;5971;49.646;8.568;2023-06-22T13:20:54;7.80;;;3.80;;
11827;SDS011;5971;49.646;8.568;2023-06-22T13:23:55;5.90;;;3.40;;
11827;SDS011;5971;49.646;8.568;2023-06-22T13:26:57;8.23;;;3.72;;
11827;SDS011;5971;49.646;8.568;2023-06-22T13:29:58;6.32;;;3.42;;
11827;SDS011;5971;49.646;8.568;2023-06-22T13:33:00;6.68;;;3.33;;
11827;SDS011;5971;49.646;8.568;2023-06-22T13:36:01;5.15;;;3.67;;
11827;SDS011;5971;49.646;8.568;2023-06-22T13:39:04;6.38;;;3.67;;
11827;SDS011;5971;49.646;8.568;2023-06-22T13:42:06;4.55;;;3.15;;
11827;SDS011;5971;49.646;8.568;2023-06-22T13:45:07;7.03;;;3.88;;
11827;SDS011;5971;49.646;8.568;2023-06-22T13:48:09;6.75;;;3.70;;
11827;SDS011;5971;49.646;8.568;2023-06-22T13:51:10;6.35;;;3.53;;
11827;SDS011;5971;49.646;8.568;2023-06-22T13:54:12;4.90;;;3.53;;
11827;SDS011;5971;49.646;8.568;2023-06-22T13:57:29;4.97;;;3.65;;
11827;SDS011;5971;49.646;8.568;2023-06-22T14:00:31;5.03;;;3.15;;
11827;SDS011;5971;49.646;8.568;2023-06-22T14:03:34;5.78;;;3.60;;
11827;SDS011;5971;49.646;8.568;2023-06-22T14:06:35;6.50;;;3.70;;
11827;SDS011;5971;49.646;8.568;2023-06-22T14:09:37;5.72;;;3.40;;
11827;SDS011;5971;49.646;8.568;2023-06-22T14:12:38;5.40;;;3.40;;
11827;SDS011;5971;49.646;8.568;2023-06-22T14:15:39;5.80;;;3.72;;
11827;SDS011;5971;49.646;8.568;2023-06-22T14:18:41;6.43;;;3.97;;
11827;SDS011;5971;49.646;8.568;2023-06-22T14:21:42;6.00;;;3.60;;
11827;SDS011;5971;49.646;8.568;2023-06-22T14:24:43;5.80;;;4.30;;
11827;SDS011;5971;49.646;8.568;2023-06-22T14:27:45;5.35;;;3.70;;
11827;SDS011;5971;49.646;8.568;2023-06-22T14:30:46;5.32;;;3.42;;
11827;SDS011;5971;49.646;8.568;2023-06-22T14:33:49;5.95;;;3.78;;
11827;SDS011;5971;49.646;8.568;2023-06-22T14:36:50;7.00;;;3.47;;
11827;SDS011;5971;49.646;8.568;2023-06-22T14:39:51;6.43;;;3.22;;
11827;SDS011;5971;49.646;8.568;2023-06-22T14:42:53;6.35;;;3.55;;
11827;SDS011;5971;49.646;8.568;2023-06-22T14:45:55;6.90;;;3.45;;
11827;SDS011;5971;49.646;8.568;2023-06-22T14:48:56;6.32;;;3.58;;
11827;SDS011;5971;49.646;8.568;2023-06-22T14:51:57;7.60;;;3.97;;
11827;SDS011;5971;49.646;8.568;2023-06-22T14:54:59;5.50;;;3.63;;
11827;SDS011;5971;49.646;8.568;2023-06-22T14:58:00;7.78;;;3.95;;
11827;SDS011;5971;49.646;8.568;2023-06-22T15:01:02;6.65;;;3.22;;
11827;SDS011;5971;49.646;8.568;2023-06-22T15:04:03;5.93;;;3.65;;
11827;SDS011;5971;49.646;8.568;2023-06-22T15:07:05;6.00;;;3.60;;
11827;SDS011;5971;49.646;8.568;2023-06-22T15:10:06;6.35;;;3.83;;
11827;SDS011;5971;49.646;8.568;2023-06-22T15:13:08;8.15;;;3.72;;
11827;SDS011;5971;49.646;8.568;2023-06-22T15:16:09;5.38;;;3.72;;
11827;SDS011;5971;49.646;8.568;2023-06-22T15:19:11;7.60;;;3.67;;
11827;SDS011;5971;49.646;8.568;2023-06-22T15:22:14;8.85;;;4.25;;
11827;SDS011;5971;49.646;8.568;2023-06-22T15:25:17;5.93;;;3.90;;
11827;SDS011;5971;49.646;8.568;2023-06-22T15:28:19;8.60;;;4.32;;
11827;SDS011;5971;49.646;8.568;2023-06-22T15:31:20;8.27;;;3.90;;
11827;SDS011;5971;49.646;8.568;2023-06-22T15:34:21;7.00;;;4.10;;
11827;SDS011;5971;49.646;8.568;2023-06-22T15:37:23;8.10;;;4.10;;
11827;SDS011;5971;49.646;8.568;2023-06-22T15:40:24;7.80;;;4.00;;
11827;SDS011;5971;49.646;8.568;2023-06-22T15:43:26;7.32;;;4.53;;
11827;SDS011;5971;49.646;8.568;2023-06-22T15:46:27;6.88;;;3.85;;
11827;SDS011;5971;49.646;8.568;2023-06-22T15:49:28;7.25;;;4.03;;
11827;SDS011;5971;49.646;8.568;2023-06-22T15:52:30;8.02;;;5.10;;
11827;SDS011;5971;49.646;8.568;2023-06-22T15:55:31;7.55;;;4.03;;
11827;SDS011;5971;49.646;8.568;2023-06-22T15:58:32;8.07;;;4.13;;
11827;SDS011;5971;49.646;8.568;2023-06-22T16:01:34;6.95;;;4.03;;
11827;SDS011;5971;49.646;8.568;2023-06-22T16:04:36;7.90;;;4.28;;
11827;SDS011;5971;49.646;8.568;2023-06-22T16:07:37;6.65;;;3.92;;
11827;SDS011;5971;49.646;8.568;2023-06-22T16:10:39;7.75;;;4.20;;
11827;SDS011;5971;49.646;8.568;2023-06-22T16:13:41;7.13;;;3.65;;
11827;SDS011;5971;49.646;8.568;2023-06-22T16:16:42;8.13;;;3.67;;
11827;SDS011;5971;49.646;8.568;2023-06-22T16:19:43;8.43;;;4.13;;
11827;SDS011;5971;49.646;8.568;2023-06-22T16:22:45;7.65;;;3.90;;
11827;SDS011;5971;49.646;8.568;2023-06-22T16:25:47;6.35;;;3.80;;
11827;SDS011;5971;49.646;8.568;2023-06-22T16:28:49;7.88;;;3.80;;
11827;SDS011;5971;49.646;8.568;2023-06-22T16:31:50;7.93;;;3.88;;
11827;SDS011;5971;49.646;8.568;2023-06-22T16:34:51;12.98;;;4.45;;
11827;SDS011;5971;49.646;8.568;2023-06-22T16:37:53;6.78;;;4.18;;
11827;SDS011;5971;49.646;8.568;2023-06-22T16:40:55;8.95;;;4.10;;
11827;SDS011;5971;49.646;8.568;2023-06-22T16:43:57;6.32;;;3.83;;
11827;SDS011;5971;49.646;8.568;2023-06-22T16:46:58;8.55;;;4.05;;
11827;SDS011;5971;49.646;8.568;2023-06-22T16:50:00;7.63;;;4.00;;
11827;SDS011;5971;49.646;8.568;2023-06-22T16:53:01;8.70;;;3.70;;
11827;SDS011;5971;49.646;8.568;2023-06-22T16:56:02;8.13;;;4.28;;
11827;SDS011;5971;49.646;8.568;2023-06-22T16:59:04;5.75;;;3.08;;
11827;SDS011;5971;49.646;8.568;2023-06-22T17:02:12;5.50;;;2.03;;
11827;SDS011;5971;49.646;8.568;2023-06-22T17:05:16;4.07;;;1.92;;
11827;SDS011;5971;49.646;8.568;2023-06-22T17:08:21;4.80;;;2.53;;
11827;SDS011;5971;49.646;8.568;2023-06-22T17:11:23;4.35;;;2.13;;
11827;SDS011;5971;49.646;8.568;2023-06-22T17:14:24;4.72;;;2.05;;
11827;SDS011;5971;49.646;8.568;2023-06-22T17:17:26;2.95;;;2.00;;
11827;SDS011;5971;49.646;8.568;2023-06-22T17:20:30;4.13;;;1.85;;
11827;SDS011;5971;49.646;8.568;2023-06-22T17:23:32;3.92;;;1.95;;
11827;SDS011;5971;49.646;8.568;2023-06-22T17:26:33;3.70;;;1.92;;
11827;SDS011;5971;49.646;8.568;2023-06-22T17:29:35;5.93;;;1.95;;
11827;SDS011;5971;49.646;8.568;2023-06-22T17:32:36;3.83;;;1.88;;
11827;SDS011;5971;49.646;8.568;2023-06-22T17:35:50;3.97;;;2.05;;
11827;SDS011;5971;49.646;8.568;2023-06-22T17:38:58;5.28;;;2.17;;
11827;SDS011;5971;49.646;8.568;2023-06-22T17:41:59;5.00;;;2.53;;
11827;SDS011;5971;49.646;8.568;2023-06-22T17:45:00;4.50;;;1.88;;
11827;SDS011;5971;49.646;8.568;2023-06-22T17:48:02;5.50;;;2.17;;
11827;SDS011;5971;49.646;8.568;2023-06-22T17:51:06;6.38;;;2.22;;
11827;SDS011;5971;49.646;8.568;2023-06-22T17:54:09;3.90;;;2.00;;
11827;SDS011;5971;49.646;8.568;2023-06-22T17:57:14;4.90;;;2.28;;
11827;SDS011;5971;49.646;8.568;2023-06-22T18:00:16;4.80;;;1.88;;
11827;SDS011;5971;49.646;8.568;2023-06-22T18:03:23;5.63;;;2.05;;
11827;SDS011;5971;49.646;8.568;2023-06-22T18:06:25;3.40;;;1.92;;
11827;SDS011;5971;49.646;8.568;2023-06-22T18:09:27;5.28;;;2.00;;
11827;SDS011;5971;49.646;8.568;2023-06-22T18:12:29;4.80;;;2.33;;
11827;SDS011;5971;49.646;8.568;2023-06-22T18:15:32;4.97;;;2.08;;
11827;SDS011;5971;49.646;8.568;2023-06-22T18:18:38;5.90;;;2.00;;
11827;SDS011;5971;49.646;8.568;2023-06-22T18:21:40;4.07;;;1.95;;
11827;SDS011;5971;49.646;8.568;2023-06-22T18:24:41;4.22;;;1.90;;
11827;SDS011;5971;49.646;8.568;2023-06-22T18:27:43;5.15;;;2.78;;
11827;SDS011;5971;49.646;8.568;2023-06-22T18:30:44;5.18;;;2.13;;
11827;SDS011;5971;49.646;8.568;2023-06-22T18:33:47;5.15;;;2.58;;
11827;SDS011;5971;49.646;8.568;2023-06-22T18:36:49;3.90;;;1.85;;